Time;durP1;ratioP1;P1;durP2;ratioP2;P2;SDS_P1;SDS_P2;PMS_P1;PMS_P2;Temp;Humidity;BMP_temperature;BMP_pressure;BME280_temperature;BME280_humidity;BME280_pressure;Samples;Min_cycle;Max_cycle;Signal;HPM_P1;HPM_P2
2022/04/07 00:01:30;;;;;;;20.60;10.45;;;;;;;10.12;63.45;98516.06;4454513;32;34559;-63
2022/04/07 00:03:57;;;;;;;15.88;8.98;;;;;;;10.38;61.89;98525.41;4454023;32;33688;-63
2022/04/07 00:06:25;;;;;;;18.75;9.82;;;;;;;10.57;61.31;98515.50;4453012;32;35584;-63
2022/04/07 00:08:52;;;;;;;16.33;8.55;;;;;;;10.47;61.03;98513.50;4453503;32;33988;-63
2022/04/07 00:11:20;;;;;;;17.20;9.35;;;;;;;10.50;60.87;98506.69;4439370;32;33588;-63
2022/04/07 00:13:47;;;;;;;13.90;8.63;;;;;;;10.83;60.22;98495.38;4453009;32;33956;-63
2022/04/07 00:16:15;;;;;;;16.40;8.63;;;;;;;10.23;60.81;98499.09;4453719;32;33434;-63
2022/04/07 00:18:43;;;;;;;15.57;8.55;;;;;;;9.86;61.96;98492.97;4454152;32;33668;-63
2022/04/07 00:21:12;;;;;;;13.48;7.90;;;;;;;9.47;64.27;98493.66;4439610;32;33603;-63
2022/04/07 00:23:40;;;;;;;12.95;7.40;;;;;;;9.62;62.94;98483.72;4452730;32;33817;-63
2022/04/07 00:26:08;;;;;;;12.85;8.00;;;;;;;9.48;63.31;98482.47;4418344;32;32394;-63
2022/04/07 00:28:36;;;;;;;18.20;8.77;;;;;;;8.81;66.13;98484.84;4451287;32;32559;-63
2022/04/07 00:31:03;;;;;;;48.25;16.65;;;;;;;8.70;66.44;98481.06;4451945;32;33038;-63
2022/04/07 00:33:31;;;;;;;17.65;8.02;;;;;;;8.53;66.74;98477.06;4446011;32;34560;-63
2022/04/07 00:35:58;;;;;;;14.82;7.87;;;;;;;8.16;68.21;98478.44;4451876;32;33981;-63
2022/04/07 00:38:25;;;;;;;15.73;8.40;;;;;;;8.11;68.64;98472.25;4452056;32;34465;-63
2022/04/07 00:40:55;;;;;;;14.93;8.00;;;;;;;8.04;69.51;98471.19;4451155;32;33335;-63
2022/04/07 00:43:36;;;;;;;12.00;7.30;;;;;;;8.34;67.95;98468.69;4452444;32;33883;-63
2022/04/07 00:46:04;;;;;;;12.23;7.40;;;;;;;8.30;67.54;98464.28;4453396;32;34663;-63
2022/04/07 00:48:35;;;;;;;13.55;7.35;;;;;;;8.54;66.65;98456.47;4453081;32;33804;-63
2022/04/07 00:51:05;;;;;;;12.25;7.50;;;;;;;8.41;67.54;98457.78;4453613;32;33650;-63
2022/04/07 00:53:32;;;;;;;12.20;7.00;;;;;;;8.43;67.93;98461.28;4452478;32;33714;-63
2022/04/07 00:56:01;;;;;;;12.23;7.15;;;;;;;8.38;67.58;98452.53;4451946;32;33836;-63
2022/04/07 00:58:29;;;;;;;11.98;7.43;;;;;;;8.13;68.51;98449.94;4450695;32;32589;-63
2022/04/07 01:00:57;;;;;;;10.45;6.78;;;;;;;8.07;69.44;98451.53;4449235;32;33539;-63
2022/04/07 01:03:25;;;;;;;12.15;7.75;;;;;;;8.24;68.25;98449.47;4449645;32;34440;-63
2022/04/07 01:05:53;;;;;;;12.68;7.55;;;;;;;8.00;69.26;98448.69;4451015;32;34289;-63
2022/04/07 01:08:20;;;;;;;13.30;7.37;;;;;;;7.81;70.62;98452.34;4450484;32;33838;-63
2022/04/07 01:10:49;;;;;;;11.70;6.60;;;;;;;7.82;70.00;98447.25;4437129;32;34328;-63
2022/04/07 01:13:17;;;;;;;12.07;6.18;;;;;;;7.92;69.26;98445.87;4453104;32;33843;-63
2022/04/07 01:15:44;;;;;;;9.60;6.30;;;;;;;7.79;69.18;98448.84;4453313;32;32691;-62
2022/04/07 01:18:12;;;;;;;15.63;5.90;;;;;;;8.03;67.88;98438.47;4452111;32;33962;-63
2022/04/07 01:20:40;;;;;;;9.88;5.95;;;;;;;8.06;67.70;98442.03;4453297;32;33558;-63
2022/04/07 01:23:08;;;;;;;10.88;5.80;;;;;;;8.33;66.56;98433.44;4453430;32;33779;-63
2022/04/07 01:25:36;;;;;;;13.18;6.30;;;;;;;8.23;66.18;98431.37;4439153;32;34759;-63
2022/04/07 01:28:04;;;;;;;10.25;6.18;;;;;;;8.05;67.86;98432.56;4453332;32;34605;-63
2022/04/07 01:30:32;;;;;;;10.60;5.30;;;;;;;8.26;66.49;98422.00;4451904;32;34140;-63
2022/04/07 01:32:59;;;;;;;9.30;5.00;;;;;;;8.49;65.50;98418.47;4453083;32;33886;-63
2022/04/07 01:35:28;;;;;;;11.75;4.97;;;;;;;8.46;65.39;98419.25;4452853;32;33688;-63
2022/04/07 01:37:55;;;;;;;8.30;4.68;;;;;;;8.17;66.72;98420.84;4451499;32;34145;-63
2022/04/07 01:40:28;;;;;;;9.13;5.75;;;;;;;8.30;65.86;98407.50;4437994;32;34421;-63
2022/04/07 01:42:56;;;;;;;9.30;5.20;;;;;;;8.26;66.42;98411.69;4452549;32;34588;-63
2022/04/07 01:45:24;;;;;;;9.60;4.78;;;;;;;8.53;65.24;98404.81;4450937;32;34678;-63
2022/04/07 01:47:52;;;;;;;9.75;5.85;;;;;;;8.24;65.82;98413.34;4439232;32;33911;-63
2022/04/07 01:50:23;;;;;;;11.88;5.85;;;;;;;8.03;67.04;98403.22;4438338;32;34739;-63
2022/04/07 01:52:50;;;;;;;11.20;5.25;;;;;;;7.95;67.23;98409.84;4439143;32;33231;-63
2022/04/07 01:55:18;;;;;;;10.10;5.60;;;;;;;7.91;67.20;98407.13;4439178;32;33974;-62
2022/04/07 01:57:46;;;;;;;8.88;4.43;;;;;;;7.92;67.30;98414.91;4437866;32;34446;-63
2022/04/07 02:00:13;;;;;;;9.13;5.40;;;;;;;8.27;65.46;98402.28;4452394;32;34041;-63
2022/04/07 02:02:42;;;;;;;10.23;5.05;;;;;;;8.37;65.18;98393.13;4476879;26;33750;-83
2022/04/07 02:05:11;;;;;;;10.93;5.10;;;;;;;8.93;63.67;98390.50;4477171;32;34582;-83
2022/04/07 02:07:41;;;;;;;9.50;4.80;;;;;;;9.12;62.52;98387.59;4482442;26;34828;-64
2022/04/07 02:10:12;;;;;;;10.60;5.90;;;;;;;9.15;63.02;98373.88;4453221;32;33486;-66
2022/04/07 02:12:41;;;;;;;8.02;5.00;;;;;;;8.59;64.29;98366.28;4453145;32;34530;-66
2022/04/07 02:15:11;;;;;;;13.82;6.70;;;;;;;8.34;65.38;98359.47;4453729;32;33688;-65
2022/04/07 02:17:38;;;;;;;15.05;7.32;;;;;;;7.56;70.00;98369.03;4447337;32;33839;-66
2022/04/07 02:20:08;;;;;;;10.43;5.12;;;;;;;7.71;69.55;98367.78;4456855;32;34245;-64
2022/04/07 02:22:36;;;;;;;10.00;4.97;;;;;;;8.12;66.97;98355.37;4453294;32;33796;-66
2022/04/07 02:25:04;;;;;;;8.10;4.97;;;;;;;8.99;63.52;98341.59;4453444;32;34659;-66
2022/04/07 02:27:36;;;;;;;10.43;5.70;;;;;;;9.60;63.03;98325.13;4458782;32;32755;-65
2022/04/07 02:30:06;;;;;;;10.35;5.47;;;;;;;9.95;62.49;98327.69;4439467;32;34431;-65
2022/04/07 02:32:33;;;;;;;8.52;5.50;;;;;;;10.02;62.28;98334.75;4432200;32;33894;-66
2022/04/07 02:35:01;;;;;;;10.30;5.90;;;;;;;10.11;62.07;98328.91;4453053;32;34903;-65
2022/04/07 02:37:29;;;;;;;10.70;5.12;;;;;;;10.22;61.03;98326.56;4453622;32;34406;-66
2022/04/07 02:39:56;;;;;;;8.70;5.30;;;;;;;10.34;59.89;98320.81;4441771;32;33993;-64
2022/04/07 02:42:23;;;;;;;9.77;6.30;;;;;;;10.24;59.41;98319.72;4456137;32;33927;-66
2022/04/07 02:44:51;;;;;;;9.32;6.53;;;;;;;9.08;63.53;98308.28;4458029;32;33813;-66
2022/04/07 02:47:32;;;;;;;11.18;5.05;;;;;;;8.84;65.13;98296.44;4452094;32;34548;-65
2022/04/07 02:49:59;;;;;;;;;;;;;;;8.97;64.36;98300.22;4453469;32;33538;-66
2022/04/07 02:52:27;;;;;;;8.15;4.95;;;;;;;9.15;63.85;98294.66;4439772;32;34564;-66
2022/04/07 02:54:54;;;;;;;9.43;5.28;;;;;;;10.20;60.73;98289.44;4453234;32;33938;-66
2022/04/07 02:57:23;;;;;;;8.23;4.82;;;;;;;10.54;59.86;98297.94;4452568;32;34032;-66
2022/04/07 02:59:52;;;;;;;10.10;5.50;;;;;;;10.23;60.32;98292.06;4456236;32;34111;-67
2022/04/07 03:02:19;;;;;;;10.70;5.97;;;;;;;10.77;58.14;98275.97;4452676;32;34654;-64
2022/04/07 03:04:47;;;;;;;9.15;5.15;;;;;;;10.62;59.10;98278.25;4455459;32;33558;-66
2022/04/07 03:07:15;;;;;;;8.75;5.22;;;;;;;10.56;59.26;98280.72;4455173;32;33921;-66
2022/04/07 03:09:43;;;;;;;9.73;5.90;;;;;;;10.41;59.45;98266.62;4452824;32;33929;-66
2022/04/07 03:12:11;;;;;;;11.05;6.00;;;;;;;9.86;60.99;98275.72;4454604;32;34550;-66
2022/04/07 03:14:40;;;;;;;13.43;6.93;;;;;;;9.08;63.84;98285.03;4462954;32;33952;-66
2022/04/07 03:17:07;;;;;;;10.00;5.55;;;;;;;9.94;61.27;98274.19;4458210;32;34231;-64
2022/04/07 03:19:35;;;;;;;10.05;5.55;;;;;;;10.16;61.36;98275.56;4454072;32;33411;-65
2022/04/07 03:22:03;;;;;;;9.18;5.43;;;;;;;10.81;58.29;98272.59;4454971;32;33599;-64
2022/04/07 03:24:31;;;;;;;8.13;4.30;;;;;;;11.05;56.06;98276.50;4454663;32;33966;-66
2022/04/07 03:27:06;;;;;;;7.28;3.97;;;;;;;10.20;58.64;98282.53;4459203;32;34511;-66
2022/04/07 03:29:34;;;;;;;10.85;4.95;;;;;;;9.61;60.94;98279.44;4454471;32;33247;-65
2022/04/07 03:32:04;;;;;;;7.50;4.30;;;;;;;9.23;62.88;98276.78;4454641;32;33751;-65
2022/04/07 03:34:33;;;;;;;7.65;3.87;;;;;;;9.04;64.27;98259.97;4454495;32;34635;-65
2022/04/07 03:37:05;;;;;;;7.97;4.10;;;;;;;8.55;66.98;98258.63;4456871;32;33741;-66
2022/04/07 03:39:33;;;;;;;9.15;4.93;;;;;;;8.52;66.78;98253.38;4440632;32;33505;-64
2022/04/07 03:42:00;;;;;;;10.98;5.00;;;;;;;7.87;68.74;98246.31;4453981;32;33854;-66
2022/04/07 03:44:28;;;;;;;7.80;4.20;;;;;;;8.50;66.62;98249.88;4439831;32;33247;-65
2022/04/07 03:46:57;;;;;;;12.15;5.07;;;;;;;8.74;64.82;98240.22;4457399;32;33944;-66
2022/04/07 03:49:25;;;;;;;9.18;4.70;;;;;;;8.30;66.03;98247.56;4459955;32;33335;-67
2022/04/07 03:51:53;;;;;;;9.10;5.32;;;;;;;7.85;67.92;98242.81;4454785;32;33828;-65
2022/04/07 03:54:20;;;;;;;12.50;5.62;;;;;;;7.82;68.46;98237.56;4454490;32;33846;-65
2022/04/07 03:56:48;;;;;;;8.57;5.45;;;;;;;7.41;70.36;98237.12;4441732;32;32772;-65
2022/04/07 03:59:15;;;;;;;10.27;5.40;;;;;;;7.60;69.88;98242.03;4440302;32;33095;-65
2022/04/07 04:01:44;;;;;;;9.60;5.32;;;;;;;7.83;68.94;98231.59;4453106;32;32288;-64
2022/04/07 04:04:13;;;;;;;11.12;5.37;;;;;;;8.07;68.18;98234.91;4440969;32;33102;-65
2022/04/07 04:06:42;;;;;;;9.80;5.47;;;;;;;8.51;66.82;98223.25;4441946;32;34811;-66
2022/04/07 04:09:09;;;;;;;7.68;4.50;;;;;;;9.25;64.46;98220.84;4438623;32;33459;-65
2022/04/07 04:11:37;;;;;;;11.77;5.57;;;;;;;9.86;62.28;98220.56;4442709;32;33777;-64
2022/04/07 04:14:05;;;;;;;12.63;5.55;;;;;;;9.48;62.61;98218.81;4454385;32;35938;-67
2022/04/07 04:16:32;;;;;;;11.95;5.57;;;;;;;8.69;66.08;98210.81;4453682;32;33867;-66
2022/04/07 04:19:00;;;;;;;8.90;4.87;;;;;;;8.78;65.06;98208.47;4460272;32;33503;-65
2022/04/07 04:21:28;;;;;;;8.95;5.07;;;;;;;8.61;65.91;98214.91;4445749;32;33085;-67
2022/04/07 04:23:55;;;;;;;12.75;5.97;;;;;;;8.28;66.78;98221.72;4454355;32;33840;-64
2022/04/07 04:26:23;;;;;;;8.77;5.28;;;;;;;7.93;68.75;98220.72;4459433;32;34577;-64
2022/04/07 04:28:50;;;;;;;8.48;5.30;;;;;;;7.28;71.50;98222.97;4452986;32;34183;-66
2022/04/07 04:31:18;;;;;;;11.27;5.53;;;;;;;7.78;69.64;98220.25;4454373;32;33856;-66
2022/04/07 04:33:46;;;;;;;10.27;5.93;;;;;;;8.62;66.51;98219.25;4453409;32;34162;-66
2022/04/07 04:36:13;;;;;;;8.88;5.10;;;;;;;8.46;66.37;98213.69;4458497;32;34597;-66
2022/04/07 04:38:41;;;;;;;12.43;5.68;;;;;;;8.35;67.33;98224.50;4455775;32;33298;-65
2022/04/07 04:41:09;;;;;;;10.90;6.18;;;;;;;8.02;68.51;98218.41;4453131;32;33376;-66
2022/04/07 04:43:36;;;;;;;10.60;6.40;;;;;;;7.65;70.16;98219.88;4452657;32;33983;-65
2022/04/07 04:46:04;;;;;;;11.12;6.25;;;;;;;8.65;66.82;98215.06;4463274;32;33711;-65
2022/04/07 04:48:32;;;;;;;11.80;5.70;;;;;;;8.95;65.58;98208.94;4452543;32;33335;-64
2022/04/07 04:50:59;;;;;;;13.98;6.25;;;;;;;9.15;65.03;98218.88;4453114;32;33634;-64
2022/04/07 04:53:27;;;;;;;14.43;6.97;;;;;;;9.60;63.60;98210.47;4453661;32;33922;-68
2022/04/07 04:55:55;;;;;;;13.55;7.57;;;;;;;9.28;64.87;98222.66;4454056;32;33965;-69
2022/04/07 04:58:23;;;;;;;12.18;6.22;;;;;;;8.84;66.00;98211.22;4450461;32;33588;-67
2022/04/07 05:00:50;;;;;;;11.77;6.32;;;;;;;8.59;67.50;98219.16;4452850;32;33938;-69
2022/04/07 05:03:18;;;;;;;10.93;6.30;;;;;;;9.09;66.68;98222.19;4452599;32;33828;-68
2022/04/07 05:05:45;;;;;;;11.70;7.18;;;;;;;8.56;67.99;98224.25;4457687;32;35118;-68
2022/04/07 05:08:12;;;;;;;13.95;6.75;;;;;;;8.72;66.25;98217.78;4454356;32;34159;-69
2022/04/07 05:10:40;;;;;;;17.37;6.70;;;;;;;8.44;67.80;98220.50;4453956;32;33907;-67
2022/04/07 05:13:08;;;;;;;17.10;7.00;;;;;;;8.44;67.44;98215.34;4451895;32;34381;-68
2022/04/07 05:15:39;;;;;;;14.30;6.65;;;;;;;8.57;66.88;98220.81;4440840;32;33562;-68
2022/04/07 05:18:07;;;;;;;12.77;6.35;;;;;;;8.62;66.72;98222.69;4452254;32;33515;-68
2022/04/07 05:20:35;;;;;;;12.02;6.68;;;;;;;9.23;64.65;98220.84;4451578;32;34642;-70
2022/04/07 05:23:03;;;;;;;12.00;5.85;;;;;;;9.07;65.47;98223.00;4451943;32;34482;-70
2022/04/07 05:25:30;;;;;;;16.37;8.05;;;;;;;10.24;61.86;98236.91;4451626;32;33846;-69
2022/04/07 05:27:58;;;;;;;24.55;8.80;;;;;;;11.03;60.21;98218.59;4451382;32;31946;-69
2022/04/07 05:30:25;;;;;;;14.20;7.47;;;;;;;10.98;60.13;98218.50;4439524;32;33951;-66
2022/04/07 05:32:53;;;;;;;14.45;7.90;;;;;;;10.90;60.28;98227.00;4454853;32;34502;-66
2022/04/07 05:35:21;;;;;;;13.90;8.10;;;;;;;10.33;62.99;98239.69;4455159;32;34169;-66
2022/04/07 05:37:48;;;;;;;17.42;8.70;;;;;;;10.02;64.17;98240.72;4453599;32;33603;-66
2022/04/07 05:40:16;;;;;;;13.75;7.10;;;;;;;9.57;65.00;98239.72;4456557;32;33825;-65
2022/04/07 05:42:43;;;;;;;12.93;7.68;;;;;;;9.22;66.13;98244.91;4452257;32;35063;-65
2022/04/07 05:45:11;;;;;;;11.95;7.25;;;;;;;9.94;63.95;98250.91;4452639;32;34943;-65
2022/04/07 05:47:40;;;;;;;10.98;6.00;;;;;;;9.01;67.63;98249.53;4446696;32;33576;-66
2022/04/07 05:50:09;;;;;;;14.77;7.37;;;;;;;9.13;68.13;98267.91;4454258;32;33788;-65
2022/04/07 05:52:37;;;;;;;13.05;7.50;;;;;;;9.13;68.37;98265.34;4456527;32;33639;-65
2022/04/07 05:55:05;;;;;;;13.93;7.82;;;;;;;9.46;67.01;98269.59;4457862;32;33881;-64
2022/04/07 05:57:33;;;;;;;12.73;7.47;;;;;;;9.60;65.67;98273.41;4455817;32;33866;-65
2022/04/07 06:00:16;;;;;;;16.02;7.90;;;;;;;9.89;63.78;98275.81;4450747;32;34698;-65
2022/04/07 06:02:45;;;;;;;16.42;7.80;;;;;;;10.34;63.28;98275.09;4457496;32;33997;-66
2022/04/07 06:05:18;;;;;;;13.77;7.07;;;;;;;11.14;60.95;98276.63;4453584;32;34329;-65
2022/04/07 06:07:46;;;;;;;13.65;7.57;;;;;;;11.70;59.50;98272.41;4452307;32;33225;-65
2022/04/07 06:10:14;;;;;;;11.32;6.72;;;;;;;11.78;59.56;98274.28;4452365;32;34238;-66
2022/04/07 06:12:46;;;;;;;14.20;7.62;;;;;;;12.09;58.54;98269.56;4441486;32;32310;-66
2022/04/07 06:15:13;;;;;;;19.95;8.93;;;;;;;12.26;58.86;98263.72;4451368;32;33952;-65
2022/04/07 06:17:44;;;;;;;18.95;8.75;;;;;;;12.58;58.16;98267.59;4452616;32;33464;-65
2022/04/07 06:20:12;;;;;;;21.60;9.48;;;;;;;12.46;58.27;98267.47;4438755;32;33422;-65
2022/04/07 06:22:41;;;;;;;22.65;10.82;;;;;;;12.51;57.64;98280.50;4449004;32;33615;-66
2022/04/07 06:25:09;;;;;;;22.20;10.52;;;;;;;11.72;60.07;98287.13;4450224;32;33816;-65
2022/04/07 06:27:38;;;;;;;22.02;10.05;;;;;;;11.29;61.87;98290.75;4448691;32;32303;-66
2022/04/07 06:30:11;;;;;;;19.75;9.57;;;;;;;11.94;60.05;98288.38;4455940;32;33844;-65
2022/04/07 06:32:39;;;;;;;19.90;9.40;;;;;;;11.59;60.24;98296.44;4443141;32;33967;-66
2022/04/07 06:35:08;;;;;;;19.15;9.05;;;;;;;12.36;58.19;98297.62;4451945;32;34628;-67
2022/04/07 06:37:52;;;;;;;18.75;9.90;;;;;;;12.57;57.62;98306.53;4443342;32;34241;-66
2022/04/07 06:40:21;;;;;;;15.63;9.95;;;;;;;12.73;57.13;98315.41;4453741;32;33536;-66
2022/04/07 06:42:49;;;;;;;21.15;10.15;;;;;;;13.44;55.89;98308.37;4458921;32;33867;-65
2022/04/07 06:45:27;;;;;;;14.45;6.78;;;;;;;13.61;54.74;98311.16;4438678;32;34663;-68
2022/04/07 06:47:55;;;;;;;17.15;6.68;;;;;;;13.53;55.13;98308.47;4455609;32;33546;-68
2022/04/07 06:50:25;;;;;;;16.75;7.32;;;;;;;13.40;55.13;98312.69;4456108;32;33976;-68
2022/04/07 06:52:54;;;;;;;11.85;6.15;;;;;;;13.52;55.31;98312.81;4455750;32;34438;-68
2022/04/07 06:55:22;;;;;;;13.45;6.12;;;;;;;13.50;55.42;98308.44;4463357;32;34639;-68
2022/04/07 06:57:55;;;;;;;11.32;5.68;;;;;;;13.63;54.93;98309.44;4455675;32;33419;-66
2022/04/07 07:00:27;;;;;;;11.35;6.20;;;;;;;13.88;53.94;98308.75;4454022;32;34351;-65
2022/04/07 07:02:57;;;;;;;14.25;6.43;;;;;;;13.89;53.99;98307.06;4451408;32;34699;-65
2022/04/07 07:05:29;;;;;;;14.93;6.35;;;;;;;13.81;54.69;98309.59;4437921;32;33758;-66
2022/04/07 07:07:57;;;;;;;16.08;6.72;;;;;;;13.57;54.77;98311.09;4454394;32;33468;-67
2022/04/07 07:10:28;;;;;;;12.52;6.53;;;;;;;13.72;54.70;98314.72;4440861;32;34230;-69
2022/04/07 07:12:55;;;;;;;13.15;6.60;;;;;;;14.15;53.20;98313.28;4450753;32;34491;-68
2022/04/07 07:15:23;;;;;;;15.45;6.75;;;;;;;13.28;55.55;98309.94;4458216;32;34537;-68
2022/04/07 07:17:51;;;;;;;12.93;7.55;;;;;;;14.19;52.91;98310.72;4441264;32;33181;-69
2022/04/07 07:20:19;;;;;;;14.82;7.70;;;;;;;14.58;51.23;98312.69;4455681;32;34429;-67
2022/04/07 07:22:47;;;;;;;13.60;7.62;;;;;;;14.86;50.45;98315.44;4458544;32;34218;-68
2022/04/07 07:25:14;;;;;;;15.32;6.87;;;;;;;14.98;50.34;98312.00;4460629;32;34733;-68
2022/04/07 07:27:46;;;;;;;12.05;6.93;;;;;;;14.55;50.95;98318.75;4466006;32;33693;-68
2022/04/07 07:30:15;;;;;;;11.73;6.65;;;;;;;14.79;49.28;98308.44;4456467;32;34647;-69
2022/04/07 07:32:47;;;;;;;15.63;7.07;;;;;;;14.53;49.88;98311.78;4455043;32;34480;-68
2022/04/07 07:35:17;;;;;;;11.85;7.65;;;;;;;14.41;50.46;98312.59;4454200;32;33825;-70
2022/04/07 07:37:48;;;;;;;13.85;7.50;;;;;;;13.88;51.96;98311.38;4441014;32;33189;-69
2022/04/07 07:40:17;;;;;;;12.23;6.60;;;;;;;13.21;53.53;98310.72;4453583;32;34483;-68
2022/04/07 07:42:45;;;;;;;13.35;7.60;;;;;;;14.78;50.25;98310.19;4461940;32;34556;-66
2022/04/07 07:45:12;;;;;;;16.73;7.03;;;;;;;14.69;49.77;98311.00;4430774;32;33959;-65
2022/04/07 07:48:00;;;;;;;14.95;8.07;;;;;;;14.53;50.28;98317.00;4455183;32;33955;-66
2022/04/07 07:50:27;;;;;;;13.38;7.50;;;;;;;14.67;50.58;98309.28;4457555;32;33975;-66
2022/04/07 07:52:55;;;;;;;17.42;7.80;;;;;;;14.89;49.94;98310.22;4454725;32;33807;-65
2022/04/07 07:55:23;;;;;;;15.88;8.32;;;;;;;15.11;49.09;98312.03;4442993;32;32318;-66
2022/04/07 07:57:50;;;;;;;20.88;8.07;;;;;;;14.67;50.17;98315.34;4460396;32;33289;-65
2022/04/07 08:00:18;;;;;;;13.73;7.57;;;;;;;15.04;49.75;98319.84;4457728;32;34404;-66
2022/04/07 08:02:45;;;;;;;13.80;7.00;;;;;;;15.06;49.69;98318.97;4463141;32;34574;-65
2022/04/07 08:05:14;;;;;;;11.68;7.25;;;;;;;15.02;48.55;98321.56;4457410;32;33916;-66
2022/04/07 08:07:42;;;;;;;15.32;8.88;;;;;;;14.33;50.99;98320.38;4442969;32;34151;-66
2022/04/07 08:10:10;;;;;;;13.45;8.65;;;;;;;14.44;50.26;98324.75;4459113;32;33723;-65
2022/04/07 08:12:39;;;;;;;13.77;9.10;;;;;;;14.04;51.51;98327.09;4447514;32;34789;-65
2022/04/07 08:15:07;;;;;;;15.10;7.78;;;;;;;14.08;52.03;98328.84;4441091;32;34011;-66
2022/04/07 08:17:35;;;;;;;13.65;7.65;;;;;;;13.55;53.08;98330.19;4454133;32;34428;-66
2022/04/07 08:20:04;;;;;;;14.02;8.25;;;;;;;14.93;51.00;98328.50;4443791;32;33933;-66
2022/04/07 08:22:32;;;;;;;12.60;8.00;;;;;;;14.82;50.83;98329.31;4463191;32;33584;-66
2022/04/07 08:24:59;;;;;;;13.50;7.53;;;;;;;15.17;49.92;98326.81;4444321;32;32385;-66
2022/04/07 08:27:27;;;;;;;13.50;7.97;;;;;;;14.32;52.15;98333.38;4463974;32;33531;-64
2022/04/07 08:29:54;;;;;;;16.02;7.53;;;;;;;14.65;51.07;98331.84;4455899;32;34002;-65
2022/04/07 08:32:22;;;;;;;12.60;7.32;;;;;;;15.02;50.16;98332.84;4440510;32;33432;-66
2022/04/07 08:34:50;;;;;;;18.27;8.85;;;;;;;14.68;51.36;98344.88;4459701;32;33510;-65
2022/04/07 08:37:17;;;;;;;16.48;9.02;;;;;;;14.71;51.84;98335.34;4458119;32;33473;-65
2022/04/07 08:39:45;;;;;;;16.87;8.13;;;;;;;14.18;53.25;98338.50;4454032;32;33661;-66
2022/04/07 08:42:13;;;;;;;16.25;9.20;;;;;;;14.16;53.87;98332.41;4457239;32;33885;-65
2022/04/07 08:44:40;;;;;;;12.52;8.55;;;;;;;14.25;54.02;98332.44;4440490;32;33993;-65
2022/04/07 08:47:08;;;;;;;14.48;8.80;;;;;;;14.34;54.19;98329.91;4456179;32;33069;-65
2022/04/07 08:49:37;;;;;;;16.10;9.02;;;;;;;14.03;54.43;98330.56;4458687;32;34630;-65
2022/04/07 08:52:07;;;;;;;14.63;8.88;;;;;;;13.81;54.87;98330.41;4459667;32;34713;-64
2022/04/07 08:54:35;;;;;;;15.48;9.23;;;;;;;13.81;55.39;98325.22;4459271;32;33948;-65
2022/04/07 08:57:03;;;;;;;14.70;7.85;;;;;;;13.76;56.15;98317.34;4454460;32;34116;-65
2022/04/07 08:59:32;;;;;;;12.13;7.57;;;;;;;14.48;52.50;98323.91;4453862;32;34457;-65
2022/04/07 09:02:02;;;;;;;11.32;7.70;;;;;;;14.58;51.37;98320.50;4439430;32;33771;-65
2022/04/07 09:04:39;;;;;;;9.77;5.57;;;;;;;14.90;51.20;98314.59;4456534;32;34834;-66
2022/04/07 09:07:11;;;;;;;10.82;4.93;;;;;;;15.56;47.05;98308.63;4452917;32;33744;-66
2022/04/07 09:09:39;;;;;;;7.47;4.40;;;;;;;15.59;45.50;98308.63;4453935;32;33821;-66
2022/04/07 09:12:07;;;;;;;9.05;4.50;;;;;;;14.89;47.36;98308.50;4452787;32;33927;-65
2022/04/07 09:14:37;;;;;;;8.75;4.20;;;;;;;15.24;45.30;98312.06;4452161;32;33517;-66
2022/04/07 09:17:05;;;;;;;7.60;4.37;;;;;;;15.06;46.15;98302.44;4452134;32;33176;-66
2022/04/07 09:19:35;;;;;;;8.15;4.57;;;;;;;14.41;47.69;98311.69;4455365;32;34452;-65
2022/04/07 09:22:08;;;;;;;;;;;;;;;14.51;47.83;98303.09;4455093;32;34814;-65
2022/04/07 09:24:36;;;;;;;13.43;8.73;;;;;;;14.27;48.26;98304.69;4455298;32;34723;-65
2022/04/07 09:27:08;;;;;;;16.80;9.60;;;;;;;14.67;51.10;98304.06;4436792;32;33093;-65
2022/04/07 09:29:38;;;;;;;15.30;10.60;;;;;;;14.52;53.06;98294.41;4442847;32;32328;-65
2022/04/07 09:32:17;;;;;;;14.65;9.18;;;;;;;14.39;54.09;98297.81;4457286;32;34007;-66
2022/04/07 09:34:46;;;;;;;15.27;10.25;;;;;;;14.63;53.60;98292.75;4453540;32;33764;-65
2022/04/07 09:37:14;;;;;;;16.02;10.20;;;;;;;14.33;53.09;98296.03;4436044;32;33594;-65
2022/04/07 09:39:42;;;;;;;17.50;10.02;;;;;;;14.73;52.15;98293.66;4451311;32;34663;-65
2022/04/07 09:42:25;;;;;;;18.12;9.70;;;;;;;14.99;51.00;98296.38;4431930;32;33379;-65
2022/04/07 09:44:57;;;;;;;13.15;8.75;;;;;;;15.12;50.14;98292.03;4447564;32;33730;-65
2022/04/07 09:47:39;;;;;;;15.93;9.07;;;;;;;15.36;50.63;98290.38;4452274;32;33266;-66
2022/04/07 09:50:08;;;;;;;15.18;9.50;;;;;;;15.36;50.21;98280.78;4458591;32;34103;-66
2022/04/07 09:52:40;;;;;;;14.25;8.23;;;;;;;15.92;49.36;98287.78;4456354;32;34602;-66
2022/04/07 09:55:08;;;;;;;11.93;7.15;;;;;;;15.97;48.49;98279.06;4442509;32;34116;-66
2022/04/07 09:57:37;;;;;;;10.23;5.82;;;;;;;15.97;48.24;98269.47;4453034;32;34350;-65
2022/04/07 10:00:05;;;;;;;13.25;6.90;;;;;;;15.83;46.64;98266.88;4453508;32;33883;-65
2022/04/07 10:02:33;;;;;;;12.73;7.15;;;;;;;16.06;45.94;98264.25;4452880;32;34623;-66
2022/04/07 10:05:02;;;;;;;12.50;7.12;;;;;;;16.09;47.84;98268.63;4453449;32;33958;-66
2022/04/07 10:07:29;;;;;;;12.30;7.07;;;;;;;15.79;47.66;98265.16;4453485;32;34265;-65
2022/04/07 10:09:57;;;;;;;9.02;6.22;;;;;;;15.71;47.67;98261.66;4439660;32;34724;-66
2022/04/07 10:12:24;;;;;;;9.48;5.70;;;;;;;16.16;47.84;98265.09;4453218;32;34707;-66
2022/04/07 10:14:52;;;;;;;9.80;5.75;;;;;;;15.94;47.02;98261.66;4452997;32;33402;-65
2022/04/07 10:17:20;;;;;;;9.98;6.05;;;;;;;15.60;48.02;98263.41;4453520;32;33352;-65
2022/04/07 10:19:50;;;;;;;8.75;5.03;;;;;;;16.34;46.00;98258.97;4453530;32;33817;-65
2022/04/07 10:22:53;;;;;;;7.68;4.25;;;;;;;16.68;44.44;98257.06;4463862;32;33027;-66
2022/04/07 10:25:22;;;;;;;8.45;4.53;;;;;;;16.51;43.34;98240.59;4453594;32;34656;-66
2022/04/07 10:27:52;;;;;;;8.65;4.55;;;;;;;16.63;42.67;98242.28;4441138;32;33067;-66
2022/04/07 10:30:21;;;;;;;8.68;4.37;;;;;;;16.47;43.57;98239.72;4455279;32;34092;-65
2022/04/07 10:32:52;;;;;;;6.80;3.70;;;;;;;16.71;43.50;98233.53;4441627;32;34676;-68
2022/04/07 10:35:38;;;;;;;9.15;3.90;;;;;;;17.18;41.61;98233.31;4455457;32;33733;-68
2022/04/07 10:38:07;;;;;;;6.62;3.97;;;;;;;16.88;42.03;98224.75;4442966;32;33241;-67
2022/04/07 10:40:50;;;;;;;7.55;3.35;;;;;;;16.77;41.82;98221.31;4455636;32;34127;-67
2022/04/07 10:43:21;;;;;;;8.90;4.10;;;;;;;17.08;41.17;98227.28;4440628;32;34003;-67
2022/04/07 10:45:51;;;;;;;7.72;3.53;;;;;;;16.91;41.61;98224.75;4456872;32;34876;-67
2022/04/07 10:48:31;;;;;;;5.75;3.25;;;;;;;17.16;41.16;98227.22;4462048;32;33382;-68
2022/04/07 10:51:09;;;;;;;6.47;3.37;;;;;;;17.26;40.25;98207.94;4454345;32;33753;-68
2022/04/07 10:53:38;;;;;;;5.97;3.58;;;;;;;17.41;40.64;98209.56;4438675;32;32195;-69
2022/04/07 10:56:08;;;;;;;6.55;3.08;;;;;;;17.74;39.12;98202.31;4456607;32;33555;-67
2022/04/07 10:58:38;;;;;;;5.57;2.97;;;;;;;18.24;39.27;98207.03;4459017;32;33722;-68
2022/04/07 11:01:06;;;;;;;15.18;3.97;;;;;;;18.11;37.67;98202.81;4457890;32;34462;-67
2022/04/07 11:03:34;;;;;;;5.97;3.17;;;;;;;17.79;38.47;98201.38;4457556;32;34732;-65
2022/04/07 11:06:06;;;;;;;6.15;3.20;;;;;;;17.80;37.94;98197.00;4459977;32;33826;-65
2022/04/07 11:08:34;;;;;;;5.57;3.40;;;;;;;18.60;35.96;98189.13;4455198;32;33163;-66
2022/04/07 11:11:01;;;;;;;6.57;3.05;;;;;;;17.93;37.56;98197.78;4452374;32;34506;-66
2022/04/07 11:13:50;;;;;;;5.97;3.03;;;;;;;18.35;36.20;98200.78;4456312;32;33944;-66
2022/04/07 11:16:30;;;;;;;6.47;3.22;;;;;;;18.65;36.63;98192.53;4454393;32;33932;-66
2022/04/07 11:19:11;;;;;;;7.18;3.35;;;;;;;18.47;36.40;98201.50;4453227;32;32135;-66
2022/04/07 11:21:49;;;;;;;6.15;3.37;;;;;;;19.18;36.80;98194.41;4446147;32;33733;-66
2022/04/07 11:24:24;;;;;;;8.15;3.47;;;;;;;19.54;34.05;98198.19;4455191;32;33458;-66
2022/04/07 11:26:52;;;;;;;7.25;3.53;;;;;;;19.30;35.53;98190.75;4456861;32;34646;-65
2022/04/07 11:29:34;;;;;;;5.70;3.30;;;;;;;19.03;36.15;98201.66;4440756;32;34135;-64
2022/04/07 11:32:09;;;;;;;7.78;3.50;;;;;;;19.46;34.43;98194.84;4459256;32;33818;-65
2022/04/07 11:34:37;;;;;;;8.32;3.80;;;;;;;19.52;34.55;98199.12;4439756;32;32320;-66
2022/04/07 11:37:09;;;;;;;8.35;3.67;;;;;;;18.78;35.64;98195.84;4454326;32;34458;-65
2022/04/07 11:39:48;;;;;;;6.60;3.70;;;;;;;18.97;35.46;98186.00;4439197;32;33425;-66
2022/04/07 11:42:18;;;;;;;6.62;3.80;;;;;;;19.64;34.20;98178.78;4453141;32;34015;-66